Time;durP1;ratioP1;P1;durP2;ratioP2;P2;SDS_P1;SDS_P2;PMS_P1;PMS_P2;Temp;Humidity;BMP_temperature;BMP_pressure;BME280_temperature;BME280_humidity;BME280_pressure;Samples;Min_cycle;Max_cycle;Signal;HPM_P1;HPM_P2
2023/08/30 00:00:10;;;;;;;19.25;17.23;;;13.70;99.90;;;;;;4974083;28;20130;-74
2023/08/30 00:02:36;;;;;;;18.90;16.83;;;13.60;99.90;;;;;;4997145;28;20042;-74
2023/08/30 00:05:03;;;;;;;20.20;16.55;;;13.60;99.90;;;;;;5026021;28;20037;-74
2023/08/30 00:07:29;;;;;;;18.48;16.38;;;13.60;99.90;;;;;;5006477;28;20064;-74
2023/08/30 00:09:56;;;;;;;18.48;16.50;;;13.50;99.90;;;;;;4997591;28;20599;-74
2023/08/30 00:12:22;;;;;;;18.25;15.55;;;13.50;99.90;;;;;;4996415;28;20050;-74
2023/08/30 00:14:48;;;;;;;18.35;16.45;;;13.50;99.90;;;;;;4973085;28;20404;-74
2023/08/30 00:17:14;;;;;;;18.27;16.08;;;13.40;99.90;;;;;;4989481;28;20104;-74
2023/08/30 00:19:40;;;;;;;19.90;16.60;;;13.40;99.90;;;;;;5024459;28;20038;-74
2023/08/30 00:22:07;;;;;;;19.80;16.55;;;13.40;99.90;;;;;;5023651;28;20034;-74
2023/08/30 00:24:33;;;;;;;17.88;15.98;;;13.30;99.90;;;;;;4991230;28;20047;-74
2023/08/30 00:27:00;;;;;;;18.60;16.25;;;13.30;99.90;;;;;;4993246;28;20038;-74
2023/08/30 00:29:26;;;;;;;17.83;15.93;;;13.30;99.90;;;;;;5032886;28;20515;-74
2023/08/30 00:31:51;;;;;;;19.05;17.05;;;13.30;99.90;;;;;;5018546;28;20046;-74
2023/08/30 00:34:17;;;;;;;18.20;15.43;;;13.20;99.90;;;;;;4968982;28;20074;-74
2023/08/30 00:36:43;;;;;;;18.48;15.57;;;13.20;99.90;;;;;;4997816;28;20045;-74
2023/08/30 00:39:08;;;;;;;17.02;15.30;;;13.10;99.90;;;;;;5005789;28;20026;-74
2023/08/30 00:41:35;;;;;;;17.75;15.88;;;13.10;99.90;;;;;;5012205;28;20045;-74
2023/08/30 00:44:01;;;;;;;19.48;17.50;;;13.10;99.90;;;;;;5022494;28;20056;-74
2023/08/30 00:46:28;;;;;;;18.73;16.30;;;13.10;99.90;;;;;;5033613;28;20380;-74
2023/08/30 00:48:54;;;;;;;18.27;16.00;;;13.10;99.90;;;;;;5008005;28;20104;-74
2023/08/30 00:51:20;;;;;;;17.88;16.08;;;13.00;99.90;;;;;;4999006;28;20493;-74
2023/08/30 00:53:47;;;;;;;18.08;16.20;;;13.00;99.90;;;;;;4997529;28;20040;-74
2023/08/30 00:56:13;;;;;;;17.73;15.57;;;13.10;99.90;;;;;;5029483;28;20042;-74
2023/08/30 00:58:39;;;;;;;16.95;14.98;;;13.00;99.90;;;;;;4988522;28;20033;-75
2023/08/30 01:01:07;;;;;;;17.70;15.88;;;13.00;99.90;;;;;;5006764;28;20037;-74
2023/08/30 01:03:34;;;;;;;17.55;15.63;;;13.00;99.90;;;;;;5023203;28;20037;-74
2023/08/30 01:06:00;;;;;;;19.08;16.60;;;12.90;99.90;;;;;;5016467;28;20037;-75
2023/08/30 01:08:26;;;;;;;18.02;15.27;;;12.90;99.90;;;;;;4991554;28;22128;-74
2023/08/30 01:11:18;;;;;;;19.23;15.68;;;12.90;99.90;;;;;;5024820;28;20101;-75
2023/08/30 01:14:03;;;;;;;18.37;14.60;;;12.90;99.90;;;;;;5035643;28;20156;-75
2023/08/30 01:16:31;;;;;;;16.88;14.93;;;12.90;99.90;;;;;;5002241;28;20524;-75
2023/08/30 01:19:03;;;;;;;18.63;15.30;;;12.90;99.90;;;;;;5012845;28;20063;-74
2023/08/30 01:21:40;;;;;;;19.05;15.57;;;12.90;99.90;;;;;;5004521;28;20507;-74
2023/08/30 01:24:09;;;;;;;19.48;15.57;;;12.90;99.90;;;;;;5010479;28;20042;-74
2023/08/30 01:27:10;;;;;;;19.67;15.50;;;12.90;99.90;;;;;;5031143;28;20046;-74
2023/08/30 01:29:39;;;;;;;17.45;15.07;;;12.90;99.90;;;;;;5025495;28;20038;-74
2023/08/30 01:32:07;;;;;;;19.20;15.85;;;12.80;99.90;;;;;;5000692;28;20038;-74
2023/08/30 01:34:34;;;;;;;20.17;16.25;;;12.80;99.90;;;;;;5031106;28;20073;-74
2023/08/30 01:37:02;;;;;;;19.92;16.77;;;12.70;99.90;;;;;;5000425;28;20051;-75
2023/08/30 01:39:28;;;;;;;18.35;15.55;;;12.70;99.90;;;;;;4996476;28;20076;-74
2023/08/30 01:42:00;;;;;;;18.60;15.95;;;12.70;99.90;;;;;;5006458;28;20030;-74
2023/08/30 01:44:28;;;;;;;17.08;15.15;;;12.70;99.90;;;;;;4991786;28;20088;-74
2023/08/30 01:46:56;;;;;;;18.75;15.38;;;12.60;99.90;;;;;;5002922;28;20069;-73
2023/08/30 01:49:22;;;;;;;19.58;15.50;;;12.60;99.90;;;;;;5005015;28;20081;-73
2023/08/30 01:51:50;;;;;;;19.83;15.05;;;12.60;99.90;;;;;;4995570;28;20135;-73
2023/08/30 01:54:18;;;;;;;16.15;14.38;;;12.60;99.90;;;;;;4999113;28;20037;-73
2023/08/30 01:56:45;;;;;;;18.23;15.20;;;12.60;99.90;;;;;;5034614;28;20069;-73
2023/08/30 01:59:10;;;;;;;19.63;15.18;;;12.50;99.90;;;;;;4991257;28;20042;-74
2023/08/30 02:01:36;;;;;;;21.10;16.17;;;12.50;99.90;;;;;;4971251;28;20088;-73
2023/08/30 02:04:02;;;;;;;19.33;15.77;;;12.50;99.90;;;;;;4997508;28;20062;-74
2023/08/30 02:06:39;;;;;;;16.98;15.18;;;12.40;99.90;;;;;;5016120;28;20038;-75
2023/08/30 02:09:16;;;;;;;18.73;14.73;;;12.40;99.90;;;;;;5002220;28;20105;-73
2023/08/30 02:11:45;;;;;;;19.17;16.00;;;12.40;99.90;;;;;;5032213;28;20081;-73
2023/08/30 02:14:17;;;;;;;18.63;15.77;;;12.40;99.90;;;;;;5002728;28;20034;-73
2023/08/30 02:16:44;;;;;;;19.75;15.65;;;12.40;99.90;;;;;;5028415;28;20038;-73
2023/08/30 02:19:11;;;;;;;19.15;15.68;;;12.40;99.90;;;;;;4982694;28;20129;-74
2023/08/30 02:21:40;;;;;;;19.52;16.92;;;12.30;99.90;;;;;;4988169;28;20149;-75
2023/08/30 02:24:06;;;;;;;19.02;16.23;;;12.30;99.90;;;;;;5010751;28;20070;-75
2023/08/30 02:26:32;;;;;;;20.77;15.75;;;12.30;99.90;;;;;;5012581;28;20228;-75
2023/08/30 02:28:57;;;;;;;17.20;14.85;;;12.20;99.90;;;;;;4993193;28;20034;-75
2023/08/30 02:31:23;;;;;;;18.23;14.25;;;12.20;99.90;;;;;;4955240;28;20537;-75
2023/08/30 02:33:49;;;;;;;18.40;15.20;;;12.10;99.90;;;;;;4982271;28;20045;-75
2023/08/30 02:36:15;;;;;;;16.33;14.65;;;12.00;99.90;;;;;;5014081;28;20046;-75
2023/08/30 02:38:40;;;;;;;18.17;15.88;;;12.00;99.90;;;;;;5010806;28;20053;-74
2023/08/30 02:41:06;;;;;;;19.58;15.13;;;11.90;99.90;;;;;;4996264;28;20038;-75
2023/08/30 02:43:32;;;;;;;17.02;14.40;;;11.80;99.90;;;;;;4992344;28;20038;-75
2023/08/30 02:45:57;;;;;;;18.48;15.25;;;11.80;99.90;;;;;;5002283;28;20067;-75
2023/08/30 02:48:23;;;;;;;20.67;15.93;;;11.70;99.90;;;;;;4988485;28;20088;-75
2023/08/30 02:50:49;;;;;;;19.00;17.00;;;11.70;99.90;;;;;;5004265;28;20407;-75
2023/08/30 02:53:14;;;;;;;21.88;16.65;;;11.70;99.90;;;;;;4967619;28;20100;-75
2023/08/30 02:55:40;;;;;;;20.75;16.13;;;11.70;99.90;;;;;;5012340;28;20440;-75
2023/08/30 02:58:06;;;;;;;19.38;15.95;;;11.70;99.90;;;;;;4985027;28;20073;-75
2023/08/30 03:00:31;;;;;;;18.00;15.98;;;11.60;99.90;;;;;;4999763;28;20553;-75
2023/08/30 03:02:57;;;;;;;19.10;15.73;;;11.60;99.90;;;;;;5007751;28;20049;-75
2023/08/30 03:05:23;;;;;;;19.88;16.65;;;11.60;99.90;;;;;;4975537;28;20053;-76
2023/08/30 03:07:48;;;;;;;17.58;15.77;;;11.60;99.90;;;;;;5033180;28;20503;-76
2023/08/30 03:10:14;;;;;;;20.25;17.45;;;11.50;99.90;;;;;;4999513;28;20054;-75
2023/08/30 03:12:40;;;;;;;22.45;17.50;;;11.50;99.90;;;;;;4967597;28;20042;-75
2023/08/30 03:15:06;;;;;;;23.10;17.98;;;11.50;99.90;;;;;;5000769;28;20038;-75
2023/08/30 03:17:32;;;;;;;24.42;17.42;;;11.50;99.90;;;;;;4997775;28;20045;-75
2023/08/30 03:19:58;;;;;;;22.35;17.85;;;11.50;99.90;;;;;;5039119;28;20038;-75
2023/08/30 03:22:24;;;;;;;22.45;17.55;;;11.50;99.90;;;;;;4993109;28;20068;-75
2023/08/30 03:24:50;;;;;;;23.60;18.40;;;11.50;99.90;;;;;;5009158;28;20034;-75
2023/08/30 03:27:16;;;;;;;21.33;17.15;;;11.50;99.90;;;;;;4993372;28;20046;-75
2023/08/30 03:29:42;;;;;;;20.95;17.05;;;11.50;99.90;;;;;;4986911;28;20482;-75
2023/08/30 03:32:08;;;;;;;18.92;16.92;;;11.50;99.90;;;;;;5026100;28;20132;-74
2023/08/30 03:34:33;;;;;;;20.98;16.90;;;11.50;99.90;;;;;;4984615;28;20038;-75
2023/08/30 03:36:59;;;;;;;21.63;18.20;;;11.50;99.90;;;;;;4993393;28;20073;-75
2023/08/30 03:39:25;;;;;;;21.73;18.90;;;11.40;99.90;;;;;;5004517;28;20156;-75
2023/08/30 03:41:51;;;;;;;23.00;19.40;;;11.40;99.90;;;;;;5005345;28;20642;-74
2023/08/30 03:44:16;;;;;;;23.23;18.33;;;11.40;99.90;;;;;;4974917;28;20044;-74
2023/08/30 03:46:42;;;;;;;21.92;18.52;;;11.40;99.90;;;;;;5006063;28;20050;-74
2023/08/30 03:49:08;;;;;;;23.60;18.48;;;11.40;99.90;;;;;;4999418;28;20103;-74
2023/08/30 03:51:34;;;;;;;22.85;18.67;;;11.40;99.90;;;;;;5008303;28;20038;-74
2023/08/30 03:54:00;;;;;;;21.88;17.95;;;11.50;99.90;;;;;;4989673;28;20042;-74
2023/08/30 03:56:26;;;;;;;22.95;18.73;;;11.40;99.90;;;;;;5017495;28;20049;-73
2023/08/30 03:58:51;;;;;;;26.85;19.80;;;11.40;99.90;;;;;;5003681;28;20046;-74
2023/08/30 04:01:17;;;;;;;23.45;18.80;;;11.30;99.90;;;;;;4977392;28;20662;-74
2023/08/30 04:03:43;;;;;;;23.27;18.40;;;11.30;99.90;;;;;;4966379;28;20035;-77
2023/08/30 04:06:08;;;;;;;20.75;17.60;;;11.20;99.90;;;;;;5018067;28;20045;-73
2023/08/30 04:08:34;;;;;;;24.92;18.05;;;11.20;99.90;;;;;;5007520;28;20049;-73
2023/08/30 04:11:02;;;;;;;24.25;18.45;;;11.20;99.90;;;;;;5022735;28;20056;-73
2023/08/30 04:13:28;;;;;;;23.23;19.05;;;11.10;99.90;;;;;;4997334;28;20038;-73
2023/08/30 04:15:54;;;;;;;23.35;18.88;;;11.10;99.90;;;;;;4975084;28;20045;-73
2023/08/30 04:18:19;;;;;;;25.70;18.48;;;11.10;99.90;;;;;;5004455;28;20045;-74
2023/08/30 04:20:46;;;;;;;25.17;19.90;;;11.00;99.90;;;;;;4999955;28;20056;-73
2023/08/30 04:23:12;;;;;;;24.75;20.15;;;11.00;99.90;;;;;;4964616;28;20038;-73
2023/08/30 04:25:38;;;;;;;25.40;19.95;;;11.00;99.90;;;;;;5000786;28;20037;-73
2023/08/30 04:28:04;;;;;;;23.88;19.05;;;11.00;99.90;;;;;;5000485;28;20061;-73
2023/08/30 04:30:30;;;;;;;27.88;19.40;;;11.00;99.90;;;;;;5026714;28;20058;-73
2023/08/30 04:32:56;;;;;;;24.92;18.65;;;11.10;99.90;;;;;;4986977;28;20403;-72
2023/08/30 04:35:22;;;;;;;20.88;18.05;;;11.10;99.90;;;;;;4978701;28;20053;-72
2023/08/30 04:37:50;;;;;;;25.88;17.63;;;11.20;99.90;;;;;;5002433;28;20034;-72
2023/08/30 04:40:16;;;;;;;23.92;18.90;;;11.20;99.90;;;;;;5012774;28;20403;-72
2023/08/30 04:42:42;;;;;;;23.95;19.50;;;11.20;99.90;;;;;;5016218;28;20034;-73
2023/08/30 04:45:09;;;;;;;25.23;18.85;;;11.20;99.90;;;;;;5000394;28;20046;-72
2023/08/30 04:47:35;;;;;;;24.17;18.80;;;11.20;99.90;;;;;;5000351;28;20077;-73
2023/08/30 04:50:01;;;;;;;25.17;18.63;;;11.30;99.90;;;;;;4994405;28;20120;-72
2023/08/30 04:52:27;;;;;;;21.50;17.48;;;11.30;99.90;;;;;;4990345;28;20042;-72
2023/08/30 04:54:53;;;;;;;22.10;18.55;;;11.30;99.90;;;;;;4992552;28;20466;-72
2023/08/30 04:57:19;;;;;;;23.23;18.40;;;11.40;99.90;;;;;;5003652;28;20133;-73
2023/08/30 04:59:45;;;;;;;21.02;16.88;;;11.40;99.90;;;;;;5024399;28;20044;-72
2023/08/30 05:02:11;;;;;;;21.25;17.02;;;11.40;99.90;;;;;;4991880;28;20038;-73
2023/08/30 05:04:37;;;;;;;22.98;17.30;;;11.40;99.90;;;;;;4967516;28;20026;-72
2023/08/30 05:07:03;;;;;;;22.30;17.55;;;11.40;99.90;;;;;;5005271;28;20438;-72
2023/08/30 05:09:34;;;;;;;21.80;17.17;;;11.40;99.90;;;;;;4996638;28;20053;-72
2023/08/30 05:12:00;;;;;;;21.23;16.63;;;11.40;99.90;;;;;;5003211;28;20045;-72
2023/08/30 05:14:26;;;;;;;19.48;16.55;;;11.40;99.90;;;;;;5001821;28;20049;-72
2023/08/30 05:16:51;;;;;;;20.20;17.20;;;11.40;99.90;;;;;;5021793;28;20123;-73
2023/08/30 05:19:17;;;;;;;21.33;17.73;;;11.40;99.90;;;;;;4986259;28;20042;-72
2023/08/30 05:21:43;;;;;;;22.67;17.42;;;11.40;99.90;;;;;;4981270;28;20042;-73
2023/08/30 05:24:10;;;;;;;21.40;17.40;;;11.50;99.90;;;;;;4991439;28;20064;-72
2023/08/30 05:26:36;;;;;;;23.90;17.55;;;11.50;99.90;;;;;;4997738;28;20041;-72
2023/08/30 05:29:02;;;;;;;19.92;16.15;;;11.50;99.90;;;;;;5006268;28;20052;-73
2023/08/30 05:31:28;;;;;;;21.58;16.40;;;11.60;99.90;;;;;;4989815;28;20034;-73
2023/08/30 05:33:54;;;;;;;22.63;16.88;;;11.60;99.90;;;;;;5036223;28;20407;-73
2023/08/30 05:36:20;;;;;;;20.35;17.08;;;11.70;99.90;;;;;;5023571;28;20311;-74
2023/08/30 05:38:46;;;;;;;20.15;16.67;;;11.70;99.90;;;;;;5011908;28;20030;-73
2023/08/30 05:41:12;;;;;;;20.15;15.88;;;11.80;99.90;;;;;;5002293;28;20496;-73
2023/08/30 05:43:37;;;;;;;20.95;16.33;;;11.80;99.90;;;;;;5014912;28;20038;-72
2023/08/30 05:46:03;;;;;;;19.90;15.55;;;11.80;99.90;;;;;;4958693;28;20045;-72
2023/08/30 05:48:30;;;;;;;19.77;16.17;;;11.90;99.90;;;;;;4998932;28;20038;-72
2023/08/30 05:50:56;;;;;;;21.55;17.90;;;11.90;99.90;;;;;;4989698;28;20045;-72
2023/08/30 05:53:22;;;;;;;20.02;16.42;;;12.00;99.90;;;;;;4998775;28;20050;-72
2023/08/30 05:55:48;;;;;;;20.50;16.02;;;12.00;99.90;;;;;;4973595;28;20735;-72
2023/08/30 05:58:15;;;;;;;21.77;17.33;;;12.10;99.90;;;;;;4988638;28;20404;-73
2023/08/30 06:00:41;;;;;;;20.35;16.75;;;12.10;99.90;;;;;;5015209;28;20042;-73
2023/08/30 06:03:06;;;;;;;24.70;16.15;;;12.20;99.90;;;;;;4969774;28;20030;-72
2023/08/30 06:05:34;;;;;;;19.67;16.27;;;12.20;99.90;;;;;;4988286;28;20041;-72
2023/08/30 06:07:59;;;;;;;19.30;16.10;;;12.20;99.90;;;;;;5015746;28;20166;-72
2023/08/30 06:10:25;;;;;;;24.10;16.70;;;12.30;99.90;;;;;;5001058;28;20463;-72
2023/08/30 06:12:51;;;;;;;18.42;14.93;;;12.30;99.90;;;;;;4983892;28;20076;-73
2023/08/30 06:15:16;;;;;;;19.75;15.43;;;12.40;99.90;;;;;;4991310;28;20077;-72
2023/08/30 06:17:42;;;;;;;20.05;15.60;;;12.40;99.90;;;;;;4987833;28;20041;-73
2023/08/30 06:20:08;;;;;;;22.13;14.52;;;12.40;99.90;;;;;;4991215;28;20118;-72
2023/08/30 06:22:34;;;;;;;22.10;16.90;;;12.50;99.90;;;;;;5002899;28;20038;-72
2023/08/30 06:25:00;;;;;;;17.85;14.30;;;12.50;99.90;;;;;;5020004;28;20076;-73
2023/08/30 06:27:26;;;;;;;20.45;16.25;;;12.50;99.90;;;;;;4979656;28;20411;-73
2023/08/30 06:29:51;;;;;;;17.35;15.40;;;12.60;99.90;;;;;;4999698;28;20076;-74
2023/08/30 06:32:17;;;;;;;19.63;15.02;;;12.60;99.90;;;;;;5002302;28;20446;-73
2023/08/30 06:34:43;;;;;;;20.23;14.77;;;12.60;99.90;;;;;;5032565;28;20767;-73
2023/08/30 06:37:09;;;;;;;19.27;15.50;;;12.70;99.90;;;;;;5030771;28;20064;-73
2023/08/30 06:39:36;;;;;;;17.65;14.48;;;12.70;99.90;;;;;;5008767;28;20038;-73
2023/08/30 06:42:05;;;;;;;18.23;15.32;;;12.70;99.90;;;;;;4982867;28;20084;-73
2023/08/30 06:44:32;;;;;;;19.95;14.98;;;12.90;99.90;;;;;;5015488;28;20376;-73
2023/08/30 06:46:57;;;;;;;19.55;15.35;;;12.80;99.90;;;;;;4997544;28;20095;-73
2023/08/30 06:49:24;;;;;;;18.77;14.75;;;12.90;99.90;;;;;;4979110;28;20076;-73
2023/08/30 06:51:50;;;;;;;21.98;15.30;;;12.90;99.90;;;;;;5014649;28;20056;-73
2023/08/30 06:54:15;;;;;;;19.35;14.65;;;13.00;99.90;;;;;;4982897;28;20045;-73
2023/08/30 06:56:41;;;;;;;18.60;15.02;;;13.10;99.90;;;;;;4996203;28;20049;-73
2023/08/30 06:59:07;;;;;;;18.50;14.77;;;13.20;99.90;;;;;;5020709;28;20033;-71
2023/08/30 07:01:33;;;;;;;20.88;14.45;;;13.20;99.90;;;;;;4997906;28;20083;-73
2023/08/30 07:03:58;;;;;;;17.25;14.73;;;13.30;99.90;;;;;;4997562;28;20036;-74
2023/08/30 07:06:24;;;;;;;18.45;14.23;;;13.40;99.90;;;;;;4998282;28;20046;-72
2023/08/30 07:08:50;;;;;;;18.65;15.02;;;13.40;99.90;;;;;;4996206;28;20060;-73
2023/08/30 07:11:15;;;;;;;21.80;15.18;;;13.50;99.90;;;;;;4990507;28;20057;-74
2023/08/30 07:13:41;;;;;;;15.80;13.77;;;13.60;99.90;;;;;;5002872;28;20152;-73
2023/08/30 07:16:07;;;;;;;17.25;13.32;;;13.70;99.90;;;;;;5007541;28;20056;-75
2023/08/30 07:18:33;;;;;;;16.42;14.63;;;13.80;99.90;;;;;;5007998;28;20046;-71
2023/08/30 07:20:59;;;;;;;19.27;15.50;;;13.80;99.90;;;;;;4991174;28;20090;-70
2023/08/30 07:23:25;;;;;;;19.13;14.30;;;13.90;99.90;;;;;;5021436;28;20037;-71
2023/08/30 07:25:52;;;;;;;18.88;14.55;;;14.00;99.90;;;;;;5005082;28;20046;-71
2023/08/30 07:28:17;;;;;;;22.13;14.20;;;14.10;99.90;;;;;;4993054;28;20220;-71
2023/08/30 07:30:43;;;;;;;17.65;13.60;;;14.30;99.90;;;;;;4990231;28;20442;-70
2023/08/30 07:33:09;;;;;;;19.55;13.90;;;14.30;99.90;;;;;;5022230;28;20056;-70
2023/08/30 07:35:35;;;;;;;16.15;13.38;;;14.40;99.90;;;;;;4979167;28;20063;-71
2023/08/30 07:38:00;;;;;;;16.02;13.45;;;14.40;99.90;;;;;;4991150;28;20519;-70
2023/08/30 07:40:28;;;;;;;15.55;12.23;;;14.40;99.90;;;;;;4993281;28;20044;-71
2023/08/30 07:42:54;;;;;;;18.25;12.82;;;14.40;99.90;;;;;;5006091;28;20073;-71
2023/08/30 07:45:20;;;;;;;16.27;12.73;;;14.50;99.90;;;;;;4994867;28;20042;-70
2023/08/30 07:47:46;;;;;;;15.23;11.80;;;14.50;99.90;;;;;;5013969;28;20048;-70
2023/08/30 07:50:11;;;;;;;16.48;11.93;;;14.50;99.90;;;;;;5025983;28;20075;-71
2023/08/30 07:52:37;;;;;;;18.13;11.95;;;14.50;99.90;;;;;;4996475;28;20194;-71
2023/08/30 07:55:04;;;;;;;16.00;11.77;;;14.60;99.90;;;;;;4995721;28;20127;-71
2023/08/30 07:57:30;;;;;;;14.73;11.85;;;14.60;99.90;;;;;;5009160;28;20510;-71
2023/08/30 07:59:56;;;;;;;16.23;13.02;;;14.70;99.90;;;;;;5009927;28;20065;-71
2023/08/30 08:02:21;;;;;;;14.32;12.32;;;14.70;99.90;;;;;;4977336;28;20091;-71
2023/08/30 08:04:49;;;;;;;15.90;12.55;;;14.80;99.90;;;;;;5005903;28;20177;-70
2023/08/30 08:07:15;;;;;;;14.73;12.98;;;14.90;99.90;;;;;;4997175;28;20125;-71
2023/08/30 08:09:41;;;;;;;17.63;13.35;;;15.10;99.90;;;;;;5012808;28;20144;-71
2023/08/30 08:12:07;;;;;;;17.85;13.38;;;15.10;99.90;;;;;;5045541;28;20041;-71
2023/08/30 08:14:32;;;;;;;15.20;12.30;;;15.30;99.90;;;;;;4996300;28;20293;-71
2023/08/30 08:16:58;;;;;;;16.83;12.35;;;15.60;99.90;;;;;;4992933;28;20200;-71
2023/08/30 08:19:24;;;;;;;16.40;12.48;;;15.90;99.90;;;;;;4988957;28;20457;-71
2023/08/30 08:21:49;;;;;;;16.30;12.63;;;16.20;99.90;;;;;;5005181;28;20132;-71
2023/08/30 08:24:15;;;;;;;15.82;11.70;;;16.40;99.90;;;;;;4990401;28;20052;-70
2023/08/30 08:26:41;;;;;;;14.48;11.82;;;16.60;99.90;;;;;;5041884;28;20056;-70
2023/08/30 08:29:07;;;;;;;17.27;11.75;;;16.80;99.90;;;;;;5007096;28;20065;-70
2023/08/30 08:31:33;;;;;;;14.93;11.65;;;16.80;99.90;;;;;;4991037;28;20042;-70
2023/08/30 08:34:10;;;;;;;13.82;10.70;;;16.80;99.90;;;;;;5003684;28;20045;-71
2023/08/30 08:36:43;;;;;;;14.20;10.77;;;16.80;99.90;;;;;;5040532;28;20045;-71
2023/08/30 08:39:09;;;;;;;13.88;11.13;;;16.70;99.90;;;;;;5006037;28;20046;-71
2023/08/30 08:41:39;;;;;;;14.73;10.13;;;16.50;99.90;;;;;;5024997;28;20060;-70
2023/08/30 08:44:06;;;;;;;15.98;10.48;;;16.40;99.90;;;;;;5008162;28;20034;-70
2023/08/30 08:46:33;;;;;;;14.00;10.82;;;16.30;99.90;;;;;;5010790;28;20498;-70
2023/08/30 08:49:01;;;;;;;13.68;11.15;;;16.30;99.90;;;;;;4989671;28;20041;-71
2023/08/30 08:51:28;;;;;;;15.73;10.23;;;16.20;99.90;;;;;;4998031;28;20099;-70
2023/08/30 08:54:02;;;;;;;12.55;9.57;;;16.20;99.90;;;;;;5031281;28;20038;-70
2023/08/30 08:56:28;;;;;;;14.40;10.90;;;16.20;99.90;;;;;;5016674;28;20491;-70
2023/08/30 08:58:55;;;;;;;15.68;10.75;;;16.20;99.90;;;;;;5017367;28;20057;-70
2023/08/30 09:01:21;;;;;;;12.30;10.35;;;16.20;99.90;;;;;;4989004;28;20375;-70
2023/08/30 09:03:47;;;;;;;13.98;9.95;;;16.20;99.90;;;;;;4988908;28;20036;-70
2023/08/30 09:06:15;;;;;;;11.77;9.95;;;16.10;99.90;;;;;;4989995;28;20045;-70
2023/08/30 09:08:40;;;;;;;15.13;10.75;;;16.10;99.90;;;;;;5007819;28;20049;-69
2023/08/30 09:11:06;;;;;;;13.10;10.30;;;16.00;99.90;;;;;;5002624;28;20064;-70
2023/08/30 09:13:32;;;;;;;13.40;9.63;;;15.90;99.90;;;;;;5009459;28;20065;-70
2023/08/30 09:15:58;;;;;;;13.60;10.30;;;15.90;99.90;;;;;;5006211;28;20045;-70
2023/08/30 09:18:27;;;;;;;11.63;9.35;;;15.90;99.90;;;;;;5007464;28;20045;-69
2023/08/30 09:21:09;;;;;;;14.18;9.50;;;15.90;99.90;;;;;;5024822;28;20049;-70
2023/08/30 09:23:35;;;;;;;13.82;9.85;;;15.80;99.90;;;;;;5010075;28;20041;-70
2023/08/30 09:26:05;;;;;;;12.90;9.95;;;15.80;99.90;;;;;;5007471;28;20041;-70
2023/08/30 09:28:34;;;;;;;13.48;9.75;;;15.80;99.90;;;;;;5040012;28;20049;-70
2023/08/30 09:31:00;;;;;;;14.82;10.32;;;15.70;99.90;;;;;;5040650;28;20513;-70
2023/08/30 09:33:33;;;;;;;15.27;10.35;;;15.70;99.90;;;;;;5020987;28;20046;-70
2023/08/30 09:35:59;;;;;;;13.77;9.85;;;15.60;99.90;;;;;;5021571;28;20045;-70
2023/08/30 09:38:26;;;;;;;14.35;10.93;;;15.60;99.90;;;;;;5006622;28;20060;-70
2023/08/30 09:41:02;;;;;;;13.63;10.48;;;15.60;99.90;;;;;;5006762;28;21501;-70
2023/08/30 09:43:27;;;;;;;12.35;10.82;;;15.50;99.90;;;;;;4990592;28;20408;-70
2023/08/30 09:45:53;;;;;;;15.95;11.48;;;15.50;99.90;;;;;;5007247;28;20033;-71
2023/08/30 09:48:23;;;;;;;14.80;11.77;;;15.40;99.90;;;;;;4986174;28;21650;-71
2023/08/30 09:50:54;;;;;;;13.43;10.80;;;15.40;99.90;;;;;;5007609;28;20058;-71
2023/08/30 09:53:23;;;;;;;14.40;10.85;;;15.30;99.90;;;;;;4990774;28;20500;-71
2023/08/30 09:55:51;;;;;;;14.35;11.13;;;15.30;99.90;;;;;;5009719;28;20046;-70
2023/08/30 09:58:17;;;;;;;14.73;11.50;;;15.20;99.90;;;;;;5022369;28;20059;-70
2023/08/30 10:00:43;;;;;;;15.15;11.18;;;15.20;99.90;;;;;;5006096;28;20549;-70
2023/08/30 10:03:09;;;;;;;16.92;11.98;;;15.10;99.90;;;;;;5004933;28;20092;-70
2023/08/30 10:05:36;;;;;;;13.85;11.50;;;15.10;99.90;;;;;;5025744;28;20553;-70
2023/08/30 10:08:03;;;;;;;16.10;11.95;;;15.10;99.90;;;;;;5012025;28;20128;-71
2023/08/30 10:10:31;;;;;;;19.60;12.18;;;15.10;99.90;;;;;;4998742;28;20057;-71
2023/08/30 10:12:57;;;;;;;20.27;13.02;;;15.10;99.90;;;;;;5026630;28;20415;-71
2023/08/30 10:15:26;;;;;;;15.93;12.65;;;15.10;99.90;;;;;;5001256;28;20071;-71
2023/08/30 10:17:54;;;;;;;13.73;12.32;;;15.20;99.90;;;;;;5005544;28;20046;-70
2023/08/30 10:20:20;;;;;;;14.38;12.52;;;15.20;99.90;;;;;;5007910;28;20087;-72
2023/08/30 10:22:49;;;;;;;14.35;12.13;;;15.20;99.90;;;;;;4992272;28;20047;-70
2023/08/30 10:25:21;;;;;;;15.40;12.27;;;15.20;99.90;;;;;;5010690;28;20512;-71
2023/08/30 10:27:49;;;;;;;15.40;13.10;;;15.30;99.90;;;;;;5041413;28;20037;-70
2023/08/30 10:30:16;;;;;;;12.57;10.73;;;15.30;99.90;;;;;;5007552;28;20050;-71
2023/08/30 10:32:43;;;;;;;10.10;9.07;;;15.40;99.90;;;;;;5011024;28;20041;-71
2023/08/30 10:35:17;;;;;;;12.75;10.48;;;15.50;99.90;;;;;;4995997;28;20064;-70
2023/08/30 10:37:54;;;;;;;10.65;8.90;;;15.60;99.90;;;;;;5033467;28;20033;-71
2023/08/30 10:40:22;;;;;;;10.98;9.75;;;15.60;99.90;;;;;;5010905;28;20029;-70
2023/08/30 10:43:02;;;;;;;10.85;9.73;;;15.60;99.90;;;;;;4989031;28;20128;-70
2023/08/30 10:45:27;;;;;;;14.82;10.70;;;15.60;99.90;;;;;;5005084;28;20045;-70
2023/08/30 10:47:58;;;;;;;12.60;11.10;;;15.50;99.90;;;;;;5000837;28;20160;-71
2023/08/30 10:50:33;;;;;;;15.48;11.48;;;15.60;99.90;;;;;;5000427;28;20045;-71
2023/08/30 10:52:59;;;;;;;12.98;11.00;;;15.60;99.90;;;;;;5002803;28;20046;-71
2023/08/30 10:55:25;;;;;;;14.15;10.20;;;15.60;99.90;;;;;;4998021;28;20627;-71
2023/08/30 10:58:02;;;;;;;11.63;9.10;;;15.60;99.90;;;;;;5009417;28;20056;-70
2023/08/30 11:00:29;;;;;;;12.73;9.18;;;15.60;99.90;;;;;;4980513;28;20420;-70
2023/08/30 11:02:56;;;;;;;11.35;9.95;;;15.50;99.90;;;;;;4982697;28;20034;-70
2023/08/30 11:05:26;;;;;;;13.25;10.02;;;15.50;99.90;;;;;;4983118;28;20045;-70
2023/08/30 11:07:52;;;;;;;14.13;10.98;;;15.50;99.90;;;;;;4999064;28;20458;-70
2023/08/30 11:10:19;;;;;;;12.75;10.48;;;15.40;99.90;;;;;;5015871;28;20066;-70
2023/08/30 11:12:46;;;;;;;14.40;11.70;;;15.40;99.90;;;;;;5011509;28;21556;-70
2023/08/30 11:15:15;;;;;;;14.80;12.52;;;15.40;99.90;;;;;;4999066;28;20046;-71
2023/08/30 11:17:42;;;;;;;16.75;12.90;;;15.30;99.90;;;;;;5014874;28;20073;-70
2023/08/30 11:20:10;;;;;;;14.93;12.50;;;15.20;99.90;;;;;;5002376;28;20048;-71
2023/08/30 11:22:41;;;;;;;16.92;12.10;;;15.20;99.90;;;;;;5004568;28;20034;-71
2023/08/30 11:25:12;;;;;;;15.07;13.02;;;15.20;99.90;;;;;;5011106;28;20033;-71
2023/08/30 11:27:38;;;;;;;15.52;12.52;;;15.20;99.90;;;;;;5005417;28;20049;-71
2023/08/30 11:30:05;;;;;;;15.90;13.40;;;15.20;99.90;;;;;;5004447;28;20116;-71
2023/08/30 11:32:39;;;;;;;15.55;13.82;;;15.20;99.90;;;;;;5002461;28;20046;-71
2023/08/30 11:35:06;;;;;;;17.17;13.55;;;15.10;99.90;;;;;;5003897;28;20054;-70
2023/08/30 11:37:32;;;;;;;17.77;13.27;;;15.10;99.90;;;;;;5005471;28;20038;-70
2023/08/30 11:39:58;;;;;;;18.00;14.63;;;15.10;99.90;;;;;;4987909;28;20041;-70
2023/08/30 11:42:25;;;;;;;18.73;14.80;;;15.00;99.90;;;;;;5013247;28;20056;-71
2023/08/30 11:44:51;;;;;;;19.55;15.52;;;15.00;99.90;;;;;;4990729;28;20037;-71
2023/08/30 11:47:24;;;;;;;22.42;16.77;;;15.00;99.90;;;;;;5004676;28;20565;-71
2023/08/30 11:49:51;;;;;;;17.83;15.40;;;15.10;99.90;;;;;;5007952;28;20119;-71
2023/08/30 11:52:19;;;;;;;20.75;17.25;;;15.10;99.90;;;;;;4984326;28;20305;-71
2023/08/30 11:54:50;;;;;;;24.67;18.67;;;15.10;99.90;;;;;;4987497;28;20048;-71
2023/08/30 11:57:16;;;;;;;22.48;17.55;;;15.10;99.90;;;;;;5013821;28;20043;-70
2023/08/30 11:59:41;;;;;;;26.38;19.80;;;15.10;99.90;;;;;;5016862;28;20633;-71
2023/08/30 12:02:07;;;;;;;24.25;18.33;;;15.10;99.90;;;;;;5002446;28;20192;-70
2023/08/30 12:04:41;;;;;;;25.00;18.83;;;15.10;99.90;;;;;;4974526;28;20048;-70
2023/08/30 12:07:06;;;;;;;21.42;17.88;;;15.10;99.90;;;;;;5016335;28;20041;-70
2023/08/30 12:09:32;;;;;;;23.13;18.63;;;15.10;99.90;;;;;;5000757;28;20557;-70
2023/08/30 12:12:31;;;;;;;22.80;19.10;;;15.10;99.90;;;;;;4983200;28;20115;-70
2023/08/30 12:14:57;;;;;;;25.75;20.90;;;15.10;99.90;;;;;;4991387;28;20049;-70
2023/08/30 12:17:23;;;;;;;24.05;19.92;;;15.20;99.90;;;;;;5011691;28;20920;-70
2023/08/30 12:19:56;;;;;;;23.08;17.95;;;15.20;99.90;;;;;;5013664;28;20128;-70
2023/08/30 12:22:22;;;;;;;22.95;18.42;;;15.20;99.90;;;;;;5011643;28;20044;-70
2023/08/30 12:24:48;;;;;;;18.80;16.48;;;15.20;99.90;;;;;;4997468;28;20038;-70
2023/08/30 12:27:14;;;;;;;17.90;15.73;;;15.10;99.90;;;;;;4996023;28;21047;-69